Time;durP1;ratioP1;P1;durP2;ratioP2;P2;SDS_P1;SDS_P2;PMS_P1;PMS_P2;Temp;Humidity;BMP_temperature;BMP_pressure;BME280_temperature;BME280_humidity;BME280_pressure;Samples;Min_cycle;Max_cycle;Signal;HPM_P1;HPM_P2
2022/12/09 00:02:15;;;;;;;1999.90;999.90;;;;;;;-0.54;100.00;93514.09;5099706;28;20172;-70
2022/12/09 00:04:40;;;;;;;1999.90;999.90;;;;;;;-0.50;100.00;93514.84;5099309;28;20204;-59
2022/12/09 00:07:06;;;;;;;1999.90;999.90;;;;;;;-0.49;100.00;93519.06;5099330;28;20252;-61
2022/12/09 00:09:31;;;;;;;1999.90;999.90;;;;;;;-0.49;100.00;93525.19;5099156;28;20221;-62
2022/12/09 00:11:56;;;;;;;1999.90;999.90;;;;;;;-0.50;100.00;93531.69;5098939;28;20172;-61
2022/12/09 00:14:22;;;;;;;1999.90;999.90;;;;;;;-0.55;100.00;93534.75;5099631;28;20233;-63
2022/12/09 00:16:47;;;;;;;1999.90;999.90;;;;;;;-0.58;100.00;93535.50;5099922;28;20179;-62
2022/12/09 00:19:13;;;;;;;1999.90;999.90;;;;;;;-0.66;100.00;93541.22;5098876;28;20196;-62
2022/12/09 00:21:38;;;;;;;1999.90;999.90;;;;;;;-0.75;100.00;93540.81;5098768;28;20237;-61
2022/12/09 00:24:06;;;;;;;1999.90;999.90;;;;;;;-0.91;100.00;93537.69;5099028;28;20197;-63
2022/12/09 00:26:32;;;;;;;1999.90;999.90;;;;;;;-0.89;100.00;93533.47;5098958;28;20176;-64
2022/12/09 00:28:59;;;;;;;1999.90;999.90;;;;;;;-0.99;100.00;93538.78;5099323;28;20206;-64
2022/12/09 00:31:31;;;;;;;1999.90;999.90;;;;;;;-1.01;100.00;93535.72;5098747;28;20176;-64
2022/12/09 00:33:59;;;;;;;1999.90;999.90;;;;;;;-1.08;100.00;93531.13;5099677;28;20177;-63
2022/12/09 00:36:25;;;;;;;1999.90;999.90;;;;;;;-1.16;100.00;93526.84;5099525;28;20179;-63
2022/12/09 00:38:52;;;;;;;1999.90;999.90;;;;;;;-1.23;100.00;93526.06;5098371;28;20180;-64
2022/12/09 00:41:18;;;;;;;1999.90;999.90;;;;;;;-1.25;100.00;93525.66;5098931;28;20172;-73
2022/12/09 00:43:44;;;;;;;1999.90;999.90;;;;;;;-1.24;100.00;93519.19;5098850;28;20177;-65
2022/12/09 00:46:10;;;;;;;1999.90;999.90;;;;;;;-1.23;100.00;93515.34;5098349;28;20228;-65
2022/12/09 00:48:38;;;;;;;1999.90;999.90;;;;;;;-1.22;100.00;93517.66;5098424;28;20179;-65
2022/12/09 00:51:10;;;;;;;1999.90;999.90;;;;;;;-1.25;100.00;93522.97;5098439;28;20259;-64
2022/12/09 00:53:35;;;;;;;1999.90;999.90;;;;;;;-1.28;100.00;93519.13;5098648;28;20204;-65
2022/12/09 00:56:00;;;;;;;1999.90;999.90;;;;;;;-1.26;100.00;93502.72;5098577;28;20187;-65
2022/12/09 00:58:26;;;;;;;1999.90;999.90;;;;;;;-1.24;100.00;93508.47;5098982;28;20176;-64
2022/12/09 01:00:55;;;;;;;1999.90;999.90;;;;;;;-1.24;100.00;93503.13;5098150;28;20177;-66
2022/12/09 01:03:21;;;;;;;1999.90;999.90;;;;;;;-1.25;100.00;93510.38;5098797;28;20168;-60
2022/12/09 01:05:46;;;;;;;1999.90;999.90;;;;;;;-1.23;100.00;93510.78;5098822;28;20211;-59
2022/12/09 01:08:12;;;;;;;1999.90;999.90;;;;;;;-1.19;100.00;93503.53;5098346;28;20176;-60
2022/12/09 01:10:40;;;;;;;1999.90;999.90;;;;;;;-1.15;100.00;93506.22;5098486;28;20169;-59
2022/12/09 01:13:05;;;;;;;1999.90;999.90;;;;;;;-1.10;100.00;93503.94;5097957;28;20176;-59
2022/12/09 01:15:31;;;;;;;1999.90;999.90;;;;;;;-1.07;100.00;93513.13;5098071;28;20179;-59
2022/12/09 01:17:57;;;;;;;1999.90;999.90;;;;;;;-1.07;100.00;93516.56;5098246;28;20212;-62
2022/12/09 01:20:23;;;;;;;1999.90;999.90;;;;;;;-1.08;100.00;93524.97;5098582;28;20172;-59
2022/12/09 01:22:48;;;;;;;1999.90;999.90;;;;;;;-1.05;100.00;93526.91;5098182;28;20210;-59
2022/12/09 01:25:14;;;;;;;1999.90;999.90;;;;;;;-1.07;100.00;93539.91;5097870;28;20204;-59
2022/12/09 01:27:39;;;;;;;1999.90;999.90;;;;;;;-1.08;100.00;93546.41;5098056;28;20206;-59
2022/12/09 01:30:07;;;;;;;1999.90;999.90;;;;;;;-1.08;100.00;93549.06;5097788;28;20171;-59
2022/12/09 01:32:33;;;;;;;1999.90;999.90;;;;;;;-1.12;100.00;93540.25;5097793;28;20182;-59
2022/12/09 01:34:58;;;;;;;1999.90;999.90;;;;;;;-1.18;100.00;93533.72;5097983;28;20172;-59
2022/12/09 01:37:24;;;;;;;1999.90;999.90;;;;;;;-1.21;100.00;93537.91;5098260;28;20176;-71
2022/12/09 01:39:49;;;;;;;1999.90;999.90;;;;;;;-1.20;100.00;93546.72;5097616;28;20176;-71
2022/12/09 01:42:20;;;;;;;1999.90;999.90;;;;;;;-1.24;100.00;93557.41;5098289;28;20171;-71
2022/12/09 01:45:29;;;;;;;1999.90;999.90;;;;;;;-1.24;100.00;93567.34;5097350;28;20280;-71
2022/12/09 01:48:17;;;;;;;1999.90;999.90;;;;;;;-1.21;100.00;93555.88;5098125;28;20175;-71
2022/12/09 01:50:45;;;;;;;1999.90;999.90;;;;;;;-1.25;100.00;93565.81;5097054;28;20168;-71
2022/12/09 01:53:12;;;;;;;1999.90;999.90;;;;;;;-1.26;100.00;93577.66;5097127;28;20241;-71
2022/12/09 01:55:38;;;;;;;1999.90;999.90;;;;;;;-1.29;100.00;93573.81;5098035;28;20190;-69
2022/12/09 01:58:04;;;;;;;1999.90;999.90;;;;;;;-1.28;100.00;93569.25;5098021;28;20175;-67
2022/12/09 02:00:30;;;;;;;1999.90;999.90;;;;;;;-1.29;100.00;93559.66;5097194;28;20175;-66
2022/12/09 02:02:55;;;;;;;1999.90;999.90;;;;;;;-1.33;100.00;93570.34;5097812;28;20271;-65
2022/12/09 02:05:23;;;;;;;1999.90;999.90;;;;;;;-1.33;100.00;93564.22;5097226;28;20215;-65
2022/12/09 02:07:49;;;;;;;1999.90;999.90;;;;;;;-1.30;100.00;93568.84;5097055;28;20179;-65
2022/12/09 02:10:16;;;;;;;1999.90;999.90;;;;;;;-1.34;100.00;93562.69;5097007;28;20164;-66
2022/12/09 02:12:45;;;;;;;1999.90;999.90;;;;;;;-1.39;100.00;93563.03;5097222;28;20260;-59
2022/12/09 02:15:18;;;;;;;1999.90;999.90;;;;;;;-1.38;100.00;93551.22;5097139;28;20175;-59
2022/12/09 02:18:14;;;;;;;1999.90;999.90;;;;;;;-1.33;100.00;93548.16;5097035;28;20182;-65
2022/12/09 02:20:48;;;;;;;1999.90;999.90;;;;;;;-1.30;100.00;93550.09;5062091;28;20240;-65
2022/12/09 02:23:32;;;;;;;1999.90;999.90;;;;;;;-1.25;100.00;93544.38;5097683;28;20255;-66
2022/12/09 02:26:15;;;;;;;1999.90;999.90;;;;;;;-1.26;100.00;93538.28;5097012;28;20200;-65
2022/12/09 02:29:03;;;;;;;1999.90;999.90;;;;;;;-1.21;100.00;93526.44;5096816;28;20175;-65
2022/12/09 02:31:28;;;;;;;1999.90;999.90;;;;;;;-1.14;100.00;93527.25;5097084;28;20164;-70
2022/12/09 02:34:15;;;;;;;1999.90;999.90;;;;;;;-1.10;100.00;93524.56;5097309;28;20186;-64
2022/12/09 02:36:48;;;;;;;1999.90;999.90;;;;;;;-1.09;100.00;93529.56;5097081;28;20214;-64
2022/12/09 02:39:14;;;;;;;1999.90;999.90;;;;;;;-1.10;100.00;93529.94;5096767;28;20164;-65
2022/12/09 02:41:44;;;;;;;1999.90;999.90;;;;;;;-1.06;100.00;93534.16;5097015;28;20187;-65
2022/12/09 02:44:14;;;;;;;1999.90;999.90;;;;;;;-0.98;100.00;93532.31;5096332;28;20176;-65
2022/12/09 02:46:40;;;;;;;1999.90;999.90;;;;;;;-1.00;100.00;93540.72;5096997;28;20176;-65
2022/12/09 02:49:06;;;;;;;1999.90;999.90;;;;;;;-0.92;100.00;93536.13;5096890;28;20305;-63
2022/12/09 02:51:34;;;;;;;1999.90;999.90;;;;;;;-0.89;100.00;93543.41;5096560;28;20173;-66
2022/12/09 02:54:08;;;;;;;1999.90;999.90;;;;;;;-0.86;100.00;93531.97;5096565;28;20305;-70
2022/12/09 02:56:34;;;;;;;1999.90;999.90;;;;;;;-0.88;100.00;93536.91;5096945;28;20188;-70
2022/12/09 02:59:00;;;;;;;1999.90;999.90;;;;;;;-0.84;100.00;93543.06;5096763;28;20215;-72
2022/12/09 03:02:04;;;;;;;1999.90;999.90;;;;;;;-0.86;100.00;93535.41;5098066;28;20207;-71
2022/12/09 03:04:30;;;;;;;1999.90;999.90;;;;;;;-0.84;100.00;93530.44;5019390;28;20226;-72
2022/12/09 03:07:10;;;;;;;1999.90;999.90;;;;;;;-0.88;100.00;93536.91;5019611;28;20179;-71
2022/12/09 03:09:43;;;;;;;1999.90;999.90;;;;;;;-0.86;100.00;93546.13;5065852;28;20186;-70
2022/12/09 03:12:10;;;;;;;1999.90;999.90;;;;;;;-0.87;100.00;93543.81;5101181;28;20311;-71
2022/12/09 03:14:45;;;;;;;1999.90;999.90;;;;;;;-0.91;100.00;93548.41;5100977;28;20177;-72
2022/12/09 03:17:14;;;;;;;1999.90;999.90;;;;;;;-0.90;100.00;93539.22;5101046;28;20608;-76
2022/12/09 03:20:17;;;;;;;1999.90;999.90;;;;;;;-0.91;100.00;93549.16;5100018;28;20206;-76
2022/12/09 03:22:46;;;;;;;1999.90;999.90;;;;;;;-0.93;100.00;93550.69;5075914;28;20192;-74
2022/12/09 03:25:21;;;;;;;1999.90;999.90;;;;;;;-0.97;100.00;93558.72;5058997;28;20205;-77
2022/12/09 03:27:52;;;;;;;1999.90;999.90;;;;;;;-0.96;100.00;93556.78;5059552;28;20184;-62
2022/12/09 03:30:18;;;;;;;1999.90;999.90;;;;;;;-0.97;100.00;93560.59;5059629;28;20212;-60
2022/12/09 03:32:45;;;;;;;1999.90;999.90;;;;;;;-0.96;100.00;93565.59;5059040;28;20189;-59
2022/12/09 03:35:20;;;;;;;1999.90;999.90;;;;;;;-0.95;100.00;93561.00;5058819;28;20174;-60
2022/12/09 03:37:49;;;;;;;1999.90;999.90;;;;;;;-0.95;100.00;93564.44;5059344;28;20189;-60
2022/12/09 03:40:18;;;;;;;1999.90;999.90;;;;;;;-0.98;100.00;93564.44;5058559;28;20308;-60
2022/12/09 03:42:55;;;;;;;1999.90;999.90;;;;;;;-0.99;100.00;93557.53;5058911;28;20192;-60
2022/12/09 03:45:23;;;;;;;1999.90;999.90;;;;;;;-0.99;100.00;93560.19;5058514;28;20229;-66
2022/12/09 03:47:49;;;;;;;1999.90;999.90;;;;;;;-0.97;100.00;93555.25;5058560;28;20186;-60
2022/12/09 03:50:15;;;;;;;1999.90;999.90;;;;;;;-0.96;100.00;93554.09;5059092;28;20185;-60
2022/12/09 03:53:05;;;;;;;1999.90;999.90;;;;;;;-0.96;100.00;93567.50;5066729;28;20762;-60
2022/12/09 03:55:55;;;;;;;1999.90;999.90;;;;;;;-0.94;100.00;93554.50;5099736;28;20283;-60
2022/12/09 03:58:21;;;;;;;1999.90;999.90;;;;;;;-1.05;100.00;93546.41;5100006;28;20172;-59
2022/12/09 04:00:47;;;;;;;1999.90;999.90;;;;;;;-1.13;100.00;93546.75;5099768;28;20176;-60
2022/12/09 04:03:13;;;;;;;1999.90;999.90;;;;;;;-1.20;100.00;93546.72;5099963;28;20176;-63
2022/12/09 04:05:39;;;;;;;1999.90;999.90;;;;;;;-1.18;100.00;93547.88;5098939;28;20211;-59
2022/12/09 04:08:05;;;;;;;1999.90;999.90;;;;;;;-1.19;100.00;93548.25;5099441;28;20176;-77
2022/12/09 04:10:30;;;;;;;1999.90;999.90;;;;;;;-1.21;100.00;93531.78;5099560;28;20204;-77
2022/12/09 04:12:55;;;;;;;1999.90;999.90;;;;;;;-1.23;100.00;93536.75;5099817;28;20179;-73
2022/12/09 04:15:21;;;;;;;1999.90;999.90;;;;;;;-1.22;100.00;93538.28;5099444;28;20288;-74
2022/12/09 04:17:46;;;;;;;1999.90;999.90;;;;;;;-1.30;100.00;93536.72;5099258;28;20233;-74
2022/12/09 04:20:12;;;;;;;1999.90;999.90;;;;;;;-1.22;100.00;93527.59;5099138;28;20186;-76
2022/12/09 04:22:37;;;;;;;1999.90;999.90;;;;;;;-1.21;100.00;93521.06;5098977;28;20179;-65
2022/12/09 04:25:03;;;;;;;1999.90;999.90;;;;;;;-1.15;100.00;93516.91;5099183;28;20206;-65
2022/12/09 04:27:28;;;;;;;1999.90;999.90;;;;;;;-1.14;100.00;93518.44;5098865;28;20179;-66
2022/12/09 04:29:54;;;;;;;1999.90;999.90;;;;;;;-1.12;100.00;93516.94;5099310;28;20177;-66
2022/12/09 04:32:19;;;;;;;1999.90;999.90;;;;;;;-1.22;100.00;93506.16;5099260;28;20199;-66
2022/12/09 04:34:44;;;;;;;1999.90;999.90;;;;;;;-1.22;100.00;93490.09;5099197;28;20172;-67
2022/12/09 04:37:10;;;;;;;1999.90;999.90;;;;;;;-1.25;100.00;93474.78;5098878;28;20317;-64
2022/12/09 04:39:35;;;;;;;1999.90;999.90;;;;;;;-1.23;100.00;93461.81;5099576;28;20172;-60
2022/12/09 04:42:00;;;;;;;1999.90;999.90;;;;;;;-1.38;100.00;93444.16;5098791;28;20176;-65
2022/12/09 04:44:26;;;;;;;1999.90;999.90;;;;;;;-1.31;100.00;93417.44;5098193;28;20200;-64
2022/12/09 04:46:51;;;;;;;1999.90;999.90;;;;;;;-1.20;100.00;93408.28;5099245;28;20183;-65
2022/12/09 04:49:16;;;;;;;1999.90;999.90;;;;;;;-1.23;100.00;93411.75;5098431;28;20173;-66
2022/12/09 04:51:42;;;;;;;1999.90;999.90;;;;;;;-1.27;100.00;93407.50;5098567;28;20255;-66
2022/12/09 04:54:11;;;;;;;1999.90;999.90;;;;;;;-1.19;100.00;93411.72;5098685;28;20180;-66
2022/12/09 04:56:36;;;;;;;1999.90;999.90;;;;;;;-1.18;100.00;93400.66;5098629;28;20232;-65
2022/12/09 04:59:03;;;;;;;1999.90;999.90;;;;;;;-1.21;100.00;93395.28;5098374;28;20192;-66
2022/12/09 05:01:29;;;;;;;1999.90;999.90;;;;;;;-1.32;100.00;93394.47;5099027;28;20200;-59
2022/12/09 05:03:54;;;;;;;1999.90;999.90;;;;;;;-1.33;100.00;93390.28;5098228;28;20275;-59
2022/12/09 05:06:20;;;;;;;1999.90;999.90;;;;;;;-1.28;100.00;93376.53;5098256;28;20196;-60
2022/12/09 05:08:46;;;;;;;1999.90;999.90;;;;;;;-1.27;100.00;93370.03;5098404;28;20172;-59
2022/12/09 05:11:16;;;;;;;1999.90;999.90;;;;;;;-1.25;100.00;93360.47;5097980;28;20176;-59
2022/12/09 05:13:42;;;;;;;1999.90;999.90;;;;;;;-1.28;100.00;93355.13;5098364;28;20172;-59
2022/12/09 05:16:10;;;;;;;1999.90;999.90;;;;;;;-1.28;100.00;93347.84;5097876;28;20184;-61
2022/12/09 05:18:36;;;;;;;1999.90;999.90;;;;;;;-1.28;100.00;93361.22;5098213;28;20179;-72
2022/12/09 05:21:06;;;;;;;1999.90;999.90;;;;;;;-1.25;100.00;93362.38;5097656;28;20168;-67
2022/12/09 05:23:33;;;;;;;1999.90;999.90;;;;;;;-1.11;100.00;93354.38;5097816;28;20225;-67
2022/12/09 05:26:02;;;;;;;1999.90;999.90;;;;;;;-1.05;100.00;93353.63;5098711;28;20239;-68
2022/12/09 05:28:29;;;;;;;1999.90;999.90;;;;;;;-1.02;100.00;93354.81;5097839;28;20176;-67
2022/12/09 05:30:58;;;;;;;1999.90;999.90;;;;;;;-0.98;100.00;93355.56;5097763;28;20172;-68
2022/12/09 05:33:24;;;;;;;1999.90;999.90;;;;;;;-0.96;100.00;93343.31;5097578;28;20179;-67
2022/12/09 05:35:49;;;;;;;1999.90;999.90;;;;;;;-0.88;100.00;93341.41;5097697;28;20180;-63
2022/12/09 05:38:14;;;;;;;1999.90;999.90;;;;;;;-0.89;100.00;93337.19;5098408;28;20209;-62
2022/12/09 05:40:40;;;;;;;1999.90;999.90;;;;;;;-0.88;100.00;93334.16;5097964;28;20168;-62
2022/12/09 05:43:05;;;;;;;1999.90;999.90;;;;;;;-0.89;100.00;93334.53;5097804;28;20177;-62
2022/12/09 05:45:30;;;;;;;1999.90;999.90;;;;;;;-0.92;100.00;93337.97;5097986;28;20232;-62
2022/12/09 05:47:56;;;;;;;1999.90;999.90;;;;;;;-0.93;100.00;93344.47;5097668;28;20203;-62
2022/12/09 05:50:21;;;;;;;1999.90;999.90;;;;;;;-0.98;100.00;93344.84;5097864;28;20168;-63
2022/12/09 05:52:46;;;;;;;1999.90;999.90;;;;;;;-0.98;100.00;93342.19;5097386;28;20175;-62
2022/12/09 05:55:12;;;;;;;1999.90;999.90;;;;;;;-0.96;100.00;93331.84;5097223;28;20164;-64
2022/12/09 05:57:37;;;;;;;1999.90;999.90;;;;;;;-0.97;100.00;93333.00;5097399;28;20211;-59
2022/12/09 06:00:05;;;;;;;1999.90;999.90;;;;;;;-0.97;100.00;93319.59;5097491;28;20173;-59
2022/12/09 06:02:30;;;;;;;1999.90;999.90;;;;;;;-0.96;100.00;93311.19;5097905;28;20172;-59
2022/12/09 06:04:56;;;;;;;1999.90;999.90;;;;;;;-0.86;100.00;93309.66;5096786;28;20277;-59
2022/12/09 06:07:21;;;;;;;1999.90;999.90;;;;;;;-0.88;100.00;93302.00;5097811;28;20206;-60
2022/12/09 06:09:47;;;;;;;1999.90;999.90;;;;;;;-0.83;100.00;93300.88;5097033;28;20179;-59
2022/12/09 06:12:12;;;;;;;1999.90;999.90;;;;;;;-0.88;100.00;93302.00;5097194;28;20642;-68
2022/12/09 06:14:37;;;;;;;1999.90;999.90;;;;;;;-0.87;100.00;93298.19;5097104;28;20197;-59
2022/12/09 06:17:03;;;;;;;1999.90;999.90;;;;;;;-0.87;100.00;93300.09;5097301;28;20225;-60
2022/12/09 06:19:28;;;;;;;1999.90;999.90;;;;;;;-0.86;100.00;93298.94;5096917;28;20168;-59
2022/12/09 06:21:54;;;;;;;1999.90;999.90;;;;;;;-0.96;100.00;93289.00;5096496;28;20647;-59
2022/12/09 06:24:19;;;;;;;1999.90;999.90;;;;;;;-0.85;100.00;93279.03;5096998;28;20176;-59
2022/12/09 06:26:45;;;;;;;1999.90;999.90;;;;;;;-0.83;100.00;93271.41;5097213;28;20177;-60
2022/12/09 06:29:10;;;;;;;1999.90;999.90;;;;;;;-0.84;100.00;93275.25;5097292;28;20184;-59
2022/12/09 06:31:36;;;;;;;1999.90;999.90;;;;;;;-0.76;100.00;93255.34;5096802;28;20716;-71
2022/12/09 06:34:01;;;;;;;1999.90;999.90;;;;;;;-0.80;100.00;93247.28;5096803;28;20181;-59
2022/12/09 06:36:28;;;;;;;1999.90;999.90;;;;;;;-0.84;100.00;93251.13;5099167;28;20597;-59
2022/12/09 06:38:55;;;;;;;1999.90;999.90;;;;;;;-0.76;100.00;93244.63;5100903;28;20180;-60
2022/12/09 06:41:20;;;;;;;1999.90;999.90;;;;;;;-0.72;100.00;93250.72;5101483;28;20376;-60
2022/12/09 06:43:45;;;;;;;1999.90;999.90;;;;;;;-0.70;100.00;93243.06;5101867;28;20300;-59
2022/12/09 06:46:17;;;;;;;1999.90;999.90;;;;;;;-0.63;100.00;93251.09;5101176;28;20224;-58
2022/12/09 06:48:43;;;;;;;1999.90;999.90;;;;;;;-0.72;100.00;93242.69;5101577;28;20169;-59
2022/12/09 06:51:08;;;;;;;1999.90;999.90;;;;;;;-0.68;100.00;93236.19;5100923;28;20268;-62
2022/12/09 06:53:34;;;;;;;1999.90;999.90;;;;;;;-0.66;100.00;93249.19;5101477;28;20180;-66
2022/12/09 06:56:04;;;;;;;1999.90;999.90;;;;;;;-0.73;100.00;93257.25;5100584;28;20181;-64
2022/12/09 06:58:30;;;;;;;1999.90;999.90;;;;;;;-0.66;100.00;93254.53;5100553;28;20268;-65
2022/12/09 07:01:04;;;;;;;1999.90;999.90;;;;;;;-0.58;100.00;93261.44;5101295;28;20206;-66
2022/12/09 07:03:29;;;;;;;1999.90;999.90;;;;;;;-0.65;100.00;93264.88;5100904;28;20181;-65
2022/12/09 07:05:54;;;;;;;1999.90;999.90;;;;;;;-0.50;100.00;93255.66;5100556;28;20195;-64
2022/12/09 07:08:20;;;;;;;1999.90;999.90;;;;;;;-0.58;100.00;93262.19;5118651;28;20250;-59
2022/12/09 07:10:45;;;;;;;1999.90;999.90;;;;;;;-0.61;100.00;93278.28;5100496;28;20256;-60
2022/12/09 07:13:10;;;;;;;1999.90;999.90;;;;;;;-0.70;100.00;93291.28;5100639;28;20482;-61
2022/12/09 07:15:36;;;;;;;1999.90;999.90;;;;;;;-0.70;100.00;93296.63;5100314;28;20255;-60
2022/12/09 07:18:01;;;;;;;1999.90;999.90;;;;;;;-0.61;100.00;93299.72;5100796;28;20171;-61
2022/12/09 07:20:26;;;;;;;1999.90;999.90;;;;;;;-0.56;100.00;93292.06;5100120;28;20176;-63
2022/12/09 07:22:52;;;;;;;1999.90;999.90;;;;;;;-0.53;100.00;93302.00;5100358;28;20177;-62
2022/12/09 07:25:17;;;;;;;1999.90;999.90;;;;;;;-0.50;100.00;93311.19;5100124;28;20211;-65
2022/12/09 07:27:42;;;;;;;1999.90;999.90;;;;;;;-0.41;100.00;93306.19;5100232;28;20244;-67
2022/12/09 07:30:08;;;;;;;1999.90;999.90;;;;;;;-0.49;100.00;93323.44;5100182;28;20179;-58
2022/12/09 07:32:33;;;;;;;1999.90;999.90;;;;;;;-0.44;100.00;93321.13;5100266;28;20176;-58
2022/12/09 07:34:59;;;;;;;1999.90;999.90;;;;;;;-0.39;100.00;93319.97;5100315;28;20173;-58
2022/12/09 07:37:24;;;;;;;1999.90;999.90;;;;;;;-0.39;100.00;93323.41;5100476;28;20185;-58
2022/12/09 07:39:49;;;;;;;1999.90;999.90;;;;;;;-0.40;100.00;93335.28;5099798;28;20188;-58
2022/12/09 07:42:15;;;;;;;1999.90;999.90;;;;;;;-0.34;100.00;93349.06;5099712;28;20170;-58
2022/12/09 07:44:40;;;;;;;1999.90;999.90;;;;;;;-0.25;100.00;93352.13;5099723;28;20230;-57
2022/12/09 07:47:05;;;;;;;1999.90;999.90;;;;;;;-0.21;100.00;93360.94;5100126;28;20174;-70
2022/12/09 07:49:31;;;;;;;1999.90;999.90;;;;;;;-0.38;100.00;93367.84;5099539;28;20201;-71
2022/12/09 07:51:56;;;;;;;1999.90;999.90;;;;;;;-0.34;100.00;93384.69;5099761;28;20192;-77
2022/12/09 07:54:22;;;;;;;1999.90;999.90;;;;;;;-0.32;100.00;93393.09;5099606;28;20176;-72
2022/12/09 07:56:47;;;;;;;1999.90;999.90;;;;;;;-0.30;100.00;93411.47;5099640;28;20176;-72
2022/12/09 07:59:14;;;;;;;1999.90;999.90;;;;;;;-0.17;100.00;93416.06;5099653;28;20209;-75
2022/12/09 08:01:40;;;;;;;1999.90;999.90;;;;;;;-0.19;100.00;93426.44;5099975;28;20188;-72
2022/12/09 08:04:05;;;;;;;1999.90;999.90;;;;;;;-0.20;100.00;93438.31;5099482;28;20193;-73
2022/12/09 08:06:32;;;;;;;1999.90;999.90;;;;;;;-0.13;100.00;93434.84;5099841;28;20201;-61
2022/12/09 08:09:00;;;;;;;1999.90;999.90;;;;;;;-0.09;100.00;93444.44;5100151;28;20239;-62
2022/12/09 08:11:27;;;;;;;1999.90;999.90;;;;;;;0.08;100.00;93447.47;5099400;28;20232;-63
2022/12/09 08:13:56;;;;;;;1999.90;999.90;;;;;;;0.11;100.00;93450.19;5099926;28;20176;-63
2022/12/09 08:16:22;;;;;;;1999.90;999.90;;;;;;;0.10;100.00;93459.34;5100019;28;20220;-61
2022/12/09 08:18:48;;;;;;;1999.90;999.90;;;;;;;0.12;100.00;93459.75;5099254;28;20180;-62
2022/12/09 08:21:16;;;;;;;1999.90;999.90;;;;;;;-0.01;100.00;93466.63;5099846;28;20174;-61
2022/12/09 08:23:42;;;;;;;1999.90;999.90;;;;;;;-0.05;100.00;93449.78;5099255;28;20313;-67
2022/12/09 08:26:09;;;;;;;1999.90;999.90;;;;;;;-0.06;100.00;93462.41;5098739;28;20268;-68
2022/12/09 08:28:34;;;;;;;1999.90;999.90;;;;;;;-0.08;100.00;93466.63;5099118;28;20180;-69
2022/12/09 08:31:09;;;;;;;1999.90;999.90;;;;;;;-0.06;100.00;93469.72;5098889;28;20268;-66
2022/12/09 08:33:35;;;;;;;1999.90;999.90;;;;;;;-0.02;100.00;93470.47;5099504;28;20211;-67
2022/12/09 08:36:01;;;;;;;1999.90;999.90;;;;;;;0.07;100.00;93462.06;5098879;28;20174;-67
2022/12/09 08:38:27;;;;;;;1999.90;999.90;;;;;;;-0.11;100.00;93467.41;5098666;28;20183;-69
2022/12/09 08:40:52;;;;;;;1999.90;999.90;;;;;;;-0.03;100.00;93456.28;5099395;28;20173;-63
2022/12/09 08:43:18;;;;;;;1999.90;999.90;;;;;;;-0.04;100.00;93456.66;5099562;28;20181;-69
2022/12/09 08:45:43;;;;;;;1999.90;999.90;;;;;;;-0.16;100.00;93449.03;5098569;28;20238;-70
2022/12/09 08:48:09;;;;;;;1999.90;999.90;;;;;;;-0.04;100.00;93445.94;5099185;28;20261;-72
2022/12/09 08:50:34;;;;;;;1999.90;999.90;;;;;;;-0.10;100.00;93442.13;5098488;28;20206;-69
2022/12/09 08:53:00;;;;;;;1999.90;999.90;;;;;;;0.12;100.00;93427.56;5098950;28;20172;-68
2022/12/09 08:55:26;;;;;;;1999.90;999.90;;;;;;;-0.01;100.00;93421.03;5116322;28;20170;-71
2022/12/09 08:57:51;;;;;;;1999.90;999.90;;;;;;;0.06;100.00;93431.03;5098737;28;20227;-61
2022/12/09 09:00:17;;;;;;;1999.90;999.90;;;;;;;-0.04;100.00;93425.25;5097805;28;20173;-69
2022/12/09 09:02:43;;;;;;;1999.90;999.90;;;;;;;0.14;100.00;93433.28;5098323;28;20206;-59
2022/12/09 09:05:08;;;;;;;1999.90;999.90;;;;;;;0.04;100.00;93434.09;5098214;28;20249;-60
2022/12/09 09:07:34;;;;;;;1999.90;999.90;;;;;;;0.16;100.00;93436.38;5098231;28;20171;-61
2022/12/09 09:09:59;;;;;;;1999.90;999.90;;;;;;;0.25;100.00;93442.09;5098033;28;20388;-62
2022/12/09 09:12:26;;;;;;;1999.90;999.90;;;;;;;0.23;100.00;93460.50;5097906;28;20183;-62
2022/12/09 09:14:53;;;;;;;1999.90;999.90;;;;;;;0.23;100.00;93468.56;5098235;28;20180;-61
2022/12/09 09:17:22;;;;;;;1999.90;999.90;;;;;;;0.38;100.00;93462.00;5098156;28;20246;-66
2022/12/09 09:19:48;;;;;;;1999.90;999.90;;;;;;;0.41;100.00;93463.94;5098742;28;20594;-70
2022/12/09 09:22:13;;;;;;;1999.90;999.90;;;;;;;0.14;100.00;93484.25;5097856;28;20225;-70
2022/12/09 09:24:39;;;;;;;1999.90;999.90;;;;;;;0.22;100.00;93472.41;5098281;28;20199;-70
2022/12/09 09:27:05;;;;;;;1999.90;999.90;;;;;;;0.22;100.00;93475.06;5098757;28;20195;-70
2022/12/09 09:29:30;;;;;;;1999.90;999.90;;;;;;;0.25;100.00;93484.28;5097424;28;20603;-71
2022/12/09 09:31:56;;;;;;;1999.90;999.90;;;;;;;0.36;100.00;93485.78;5097528;28;20198;-70
2022/12/09 09:34:23;;;;;;;1999.90;999.90;;;;;;;0.38;100.00;93477.34;5097882;28;20174;-71
2022/12/09 09:36:49;;;;;;;1999.90;999.90;;;;;;;0.34;100.00;93480.03;5097993;28;20175;-60
2022/12/09 09:39:16;;;;;;;1999.90;999.90;;;;;;;0.52;100.00;93477.31;5097862;28;20219;-63
2022/12/09 09:41:44;;;;;;;1999.90;999.90;;;;;;;0.47;100.00;93491.88;5098089;28;20200;-63
2022/12/09 09:44:21;;;;;;;1999.90;999.90;;;;;;;0.34;100.00;93493.47;5097173;28;20214;-67
2022/12/09 09:46:49;;;;;;;1999.90;999.90;;;;;;;0.27;100.00;93482.72;5098268;28;20199;-64
2022/12/09 09:49:41;;;;;;;1999.90;999.90;;;;;;;0.51;100.00;93476.53;5098294;28;20243;-64
2022/12/09 09:52:13;;;;;;;1999.90;999.90;;;;;;;0.52;100.00;93483.47;5098328;28;20322;-63
2022/12/09 09:54:38;;;;;;;1999.90;999.90;;;;;;;0.37;100.00;93503.44;5098158;28;20230;-69
2022/12/09 09:57:31;;;;;;;1999.90;999.90;;;;;;;0.44;100.00;93490.00;5097367;28;20177;-73
2022/12/09 10:00:20;;;;;;;1999.90;999.90;;;;;;;0.63;100.00;93475.38;5097389;28;20179;-72
2022/12/09 10:02:57;;;;;;;1999.90;999.90;;;;;;;0.53;100.00;93471.56;5098083;28;20172;-73
2022/12/09 10:05:30;;;;;;;1999.90;999.90;;;;;;;0.60;100.00;93474.25;5097006;28;20301;-74
2022/12/09 10:08:02;;;;;;;1999.90;999.90;;;;;;;0.49;100.00;93470.03;5096937;28;20173;-74
2022/12/09 10:10:42;;;;;;;1999.90;999.90;;;;;;;0.55;100.00;93471.19;5096662;28;20179;-73
2022/12/09 10:13:29;;;;;;;1999.90;999.90;;;;;;;0.40;100.00;93470.44;5097958;28;20170;-61
2022/12/09 10:16:15;;;;;;;1999.90;999.90;;;;;;;0.41;100.00;93461.25;5097334;28;20180;-58
2022/12/09 10:18:47;;;;;;;1999.90;999.90;;;;;;;0.47;100.00;93461.63;5097193;28;20177;-58
2022/12/09 10:21:18;;;;;;;1999.90;999.90;;;;;;;0.58;100.00;93459.66;5097681;28;20259;-58
2022/12/09 10:23:44;;;;;;;1999.90;999.90;;;;;;;0.48;100.00;93466.59;5097768;28;20174;-59
2022/12/09 10:26:18;;;;;;;1999.90;999.90;;;;;;;0.36;100.00;93458.94;5096575;28;20210;-58
2022/12/09 10:28:46;;;;;;;1999.90;999.90;;;;;;;0.46;100.00;93454.69;5097796;28;20184;-58
2022/12/09 10:31:12;;;;;;;1999.90;999.90;;;;;;;0.51;100.00;93463.13;5097560;28;20185;-70
2022/12/09 10:33:39;;;;;;;1999.90;999.90;;;;;;;0.43;100.00;93458.91;5097563;28;20184;-72
2022/12/09 10:36:06;;;;;;;1999.90;999.90;;;;;;;0.45;100.00;93451.25;5097312;28;20200;-71
2022/12/09 10:38:36;;;;;;;1999.90;999.90;;;;;;;0.46;100.00;93447.41;5097157;28;20184;-72
2022/12/09 10:43:33;;;;;;;1999.90;999.90;;;;;;;0.49;100.00;93440.50;5096809;28;20194;-70
2022/12/09 10:44:23;;;;;;;1999.90;999.90;;;;;;;0.57;100.00;93442.78;5114626;28;20260;-72
2022/12/09 10:47:06;;;;;;;1999.90;999.90;;;;;;;0.70;100.00;93435.84;5096992;28;20188;-70
2022/12/09 10:49:34;;;;;;;1999.90;999.90;;;;;;;0.72;100.00;93436.22;5096710;28;20190;-73
2022/12/09 10:52:00;;;;;;;1999.90;999.90;;;;;;;0.77;100.00;93435.84;5096335;28;20219;-60
2022/12/09 10:54:36;;;;;;;1999.90;999.90;;;;;;;0.68;100.00;93435.47;5096579;28;20200;-58